sensor_id;sensor_type;location;lat;lon;timestamp;P1;durP1;ratioP1;P2;durP2;ratioP2
33862;SDS011;20158;51.436;-2.742;2022-10-16T00:03:37;8.50;;;1.98;;
33862;SDS011;20158;51.436;-2.742;2022-10-16T00:06:04;11.27;;;2.10;;
33862;SDS011;20158;51.436;-2.742;2022-10-16T00:08:30;8.20;;;1.98;;
33862;SDS011;20158;51.436;-2.742;2022-10-16T00:11:04;6.57;;;1.98;;
33862;SDS011;20158;51.436;-2.742;2022-10-16T00:13:33;7.13;;;1.63;;
33862;SDS011;20158;51.436;-2.742;2022-10-16T00:16:00;6.80;;;2.08;;
33862;SDS011;20158;51.436;-2.742;2022-10-16T00:18:27;7.82;;;1.83;;
33862;SDS011;20158;51.436;-2.742;2022-10-16T00:20:54;11.00;;;1.92;;
33862;SDS011;20158;51.436;-2.742;2022-10-16T00:23:21;11.55;;;3.35;;
33862;SDS011;20158;51.436;-2.742;2022-10-16T00:25:56;8.20;;;2.55;;
33862;SDS011;20158;51.436;-2.742;2022-10-16T00:28:23;9.00;;;2.42;;
33862;SDS011;20158;51.436;-2.742;2022-10-16T00:30:49;8.43;;;3.60;;
33862;SDS011;20158;51.436;-2.742;2022-10-16T00:33:15;4.65;;;2.17;;
33862;SDS011;20158;51.436;-2.742;2022-10-16T00:35:41;8.73;;;2.65;;
33862;SDS011;20158;51.436;-2.742;2022-10-16T00:38:07;7.50;;;2.17;;
33862;SDS011;20158;51.436;-2.742;2022-10-16T00:40:33;5.63;;;1.63;;
33862;SDS011;20158;51.436;-2.742;2022-10-16T00:42:59;8.82;;;2.17;;
33862;SDS011;20158;51.436;-2.742;2022-10-16T00:45:25;8.57;;;2.17;;
33862;SDS011;20158;51.436;-2.742;2022-10-16T00:47:51;9.32;;;2.17;;
33862;SDS011;20158;51.436;-2.742;2022-10-16T00:50:24;9.25;;;2.13;;
33862;SDS011;20158;51.436;-2.742;2022-10-16T00:52:52;5.70;;;2.05;;
33862;SDS011;20158;51.436;-2.742;2022-10-16T00:55:19;8.38;;;2.00;;
33862;SDS011;20158;51.436;-2.742;2022-10-16T00:57:45;10.95;;;2.25;;
33862;SDS011;20158;51.436;-2.742;2022-10-16T01:00:13;9.65;;;1.88;;
33862;SDS011;20158;51.436;-2.742;2022-10-16T01:02:41;6.55;;;2.03;;
33862;SDS011;20158;51.436;-2.742;2022-10-16T01:05:07;7.82;;;2.13;;
33862;SDS011;20158;51.436;-2.742;2022-10-16T01:10:39;7.90;;;2.17;;
33862;SDS011;20158;51.436;-2.742;2022-10-16T01:13:18;11.20;;;2.22;;
33862;SDS011;20158;51.436;-2.742;2022-10-16T01:15:55;9.50;;;2.80;;
33862;SDS011;20158;51.436;-2.742;2022-10-16T01:26:36;11.27;;;3.50;;
33862;SDS011;20158;51.436;-2.742;2022-10-16T01:29:16;7.22;;;2.58;;
33862;SDS011;20158;51.436;-2.742;2022-10-16T01:32:15;10.40;;;2.33;;
33862;SDS011;20158;51.436;-2.742;2022-10-16T01:40:11;10.43;;;3.17;;
33862;SDS011;20158;51.436;-2.742;2022-10-16T01:42:44;5.45;;;1.50;;
33862;SDS011;20158;51.436;-2.742;2022-10-16T01:45:16;7.25;;;2.30;;
33862;SDS011;20158;51.436;-2.742;2022-10-16T01:47:44;8.70;;;2.22;;
33862;SDS011;20158;51.436;-2.742;2022-10-16T01:50:13;7.15;;;1.80;;
33862;SDS011;20158;51.436;-2.742;2022-10-16T01:52:42;6.80;;;1.50;;
33862;SDS011;20158;51.436;-2.742;2022-10-16T01:55:13;7.55;;;1.60;;
33862;SDS011;20158;51.436;-2.742;2022-10-16T01:57:46;8.32;;;1.92;;
33862;SDS011;20158;51.436;-2.742;2022-10-16T02:00:15;8.73;;;1.88;;
33862;SDS011;20158;51.436;-2.742;2022-10-16T02:02:44;6.63;;;1.63;;
33862;SDS011;20158;51.436;-2.742;2022-10-16T02:05:25;7.07;;;1.80;;
33862;SDS011;20158;51.436;-2.742;2022-10-16T02:07:55;5.25;;;2.05;;
33862;SDS011;20158;51.436;-2.742;2022-10-16T02:10:22;4.40;;;1.70;;
33862;SDS011;20158;51.436;-2.742;2022-10-16T02:12:53;5.35;;;1.42;;
33862;SDS011;20158;51.436;-2.742;2022-10-16T02:15:24;7.47;;;1.67;;
33862;SDS011;20158;51.436;-2.742;2022-10-16T02:17:50;7.75;;;1.63;;
33862;SDS011;20158;51.436;-2.742;2022-10-16T02:20:18;6.68;;;1.70;;
33862;SDS011;20158;51.436;-2.742;2022-10-16T02:22:50;6.40;;;1.70;;
33862;SDS011;20158;51.436;-2.742;2022-10-16T02:25:25;6.00;;;1.58;;
33862;SDS011;20158;51.436;-2.742;2022-10-16T02:30:58;8.40;;;1.85;;
33862;SDS011;20158;51.436;-2.742;2022-10-16T02:33:29;6.55;;;2.28;;
33862;SDS011;20158;51.436;-2.742;2022-10-16T02:35:57;7.10;;;2.78;;
33862;SDS011;20158;51.436;-2.742;2022-10-16T02:38:24;7.68;;;1.52;;
33862;SDS011;20158;51.436;-2.742;2022-10-16T02:40:51;7.63;;;1.77;;
33862;SDS011;20158;51.436;-2.742;2022-10-16T02:43:18;6.18;;;1.40;;
33862;SDS011;20158;51.436;-2.742;2022-10-16T02:45:44;4.55;;;1.80;;
33862;SDS011;20158;51.436;-2.742;2022-10-16T02:48:10;14.80;;;3.28;;
33862;SDS011;20158;51.436;-2.742;2022-10-16T02:50:37;6.10;;;1.15;;
33862;SDS011;20158;51.436;-2.742;2022-10-16T02:53:03;5.90;;;1.67;;
33862;SDS011;20158;51.436;-2.742;2022-10-16T02:55:29;6.07;;;1.42;;
33862;SDS011;20158;51.436;-2.742;2022-10-16T02:57:55;4.90;;;1.35;;
33862;SDS011;20158;51.436;-2.742;2022-10-16T03:00:21;7.13;;;1.55;;
33862;SDS011;20158;51.436;-2.742;2022-10-16T03:02:47;7.85;;;2.28;;
33862;SDS011;20158;51.436;-2.742;2022-10-16T03:05:14;8.88;;;2.08;;
33862;SDS011;20158;51.436;-2.742;2022-10-16T03:07:41;6.47;;;1.40;;
33862;SDS011;20158;51.436;-2.742;2022-10-16T03:10:07;8.68;;;2.00;;
33862;SDS011;20158;51.436;-2.742;2022-10-16T03:12:34;5.57;;;1.58;;
33862;SDS011;20158;51.436;-2.742;2022-10-16T03:15:00;6.90;;;1.45;;
33862;SDS011;20158;51.436;-2.742;2022-10-16T03:17:27;8.73;;;1.73;;
33862;SDS011;20158;51.436;-2.742;2022-10-16T03:19:53;7.43;;;1.70;;
33862;SDS011;20158;51.436;-2.742;2022-10-16T03:22:19;6.68;;;1.55;;
33862;SDS011;20158;51.436;-2.742;2022-10-16T03:24:45;7.47;;;1.52;;
33862;SDS011;20158;51.436;-2.742;2022-10-16T03:27:11;6.15;;;2.58;;
33862;SDS011;20158;51.436;-2.742;2022-10-16T03:29:37;8.90;;;2.03;;
33862;SDS011;20158;51.436;-2.742;2022-10-16T03:32:03;5.75;;;1.75;;
33862;SDS011;20158;51.436;-2.742;2022-10-16T03:34:29;5.53;;;1.75;;
33862;SDS011;20158;51.436;-2.742;2022-10-16T03:36:55;4.90;;;1.70;;
33862;SDS011;20158;51.436;-2.742;2022-10-16T03:39:21;9.40;;;1.80;;
33862;SDS011;20158;51.436;-2.742;2022-10-16T03:41:47;8.82;;;1.55;;
33862;SDS011;20158;51.436;-2.742;2022-10-16T03:44:13;10.70;;;2.40;;
33862;SDS011;20158;51.436;-2.742;2022-10-16T03:46:39;9.95;;;2.22;;
33862;SDS011;20158;51.436;-2.742;2022-10-16T03:49:05;9.18;;;2.58;;
33862;SDS011;20158;51.436;-2.742;2022-10-16T03:51:31;5.30;;;1.40;;
33862;SDS011;20158;51.436;-2.742;2022-10-16T03:53:57;9.75;;;1.75;;
33862;SDS011;20158;51.436;-2.742;2022-10-16T03:56:22;4.78;;;1.30;;
33862;SDS011;20158;51.436;-2.742;2022-10-16T03:58:50;10.07;;;1.58;;
33862;SDS011;20158;51.436;-2.742;2022-10-16T04:01:16;8.73;;;2.30;;
33862;SDS011;20158;51.436;-2.742;2022-10-16T04:03:43;6.38;;;1.55;;
33862;SDS011;20158;51.436;-2.742;2022-10-16T04:06:09;5.72;;;1.52;;
33862;SDS011;20158;51.436;-2.742;2022-10-16T04:08:34;5.97;;;1.20;;
33862;SDS011;20158;51.436;-2.742;2022-10-16T04:11:02;5.72;;;1.60;;
33862;SDS011;20158;51.436;-2.742;2022-10-16T04:13:28;12.07;;;2.25;;
33862;SDS011;20158;51.436;-2.742;2022-10-16T04:15:54;5.53;;;1.55;;
33862;SDS011;20158;51.436;-2.742;2022-10-16T04:18:20;6.88;;;1.85;;
33862;SDS011;20158;51.436;-2.742;2022-10-16T04:20:46;6.97;;;1.30;;
33862;SDS011;20158;51.436;-2.742;2022-10-16T04:23:14;8.25;;;2.38;;
33862;SDS011;20158;51.436;-2.742;2022-10-16T04:25:39;3.55;;;1.10;;
33862;SDS011;20158;51.436;-2.742;2022-10-16T04:28:05;5.15;;;1.30;;
33862;SDS011;20158;51.436;-2.742;2022-10-16T04:30:31;7.13;;;1.77;;
33862;SDS011;20158;51.436;-2.742;2022-10-16T04:32:58;9.23;;;3.75;;
33862;SDS011;20158;51.436;-2.742;2022-10-16T04:35:24;7.88;;;1.63;;
33862;SDS011;20158;51.436;-2.742;2022-10-16T04:37:51;6.07;;;2.35;;
33862;SDS011;20158;51.436;-2.742;2022-10-16T04:40:17;6.05;;;1.52;;
33862;SDS011;20158;51.436;-2.742;2022-10-16T04:42:43;6.95;;;1.58;;
33862;SDS011;20158;51.436;-2.742;2022-10-16T04:45:08;5.38;;;1.25;;
33862;SDS011;20158;51.436;-2.742;2022-10-16T04:47:36;9.60;;;2.47;;
33862;SDS011;20158;51.436;-2.742;2022-10-16T04:50:02;6.70;;;1.67;;
33862;SDS011;20158;51.436;-2.742;2022-10-16T04:52:29;5.18;;;1.42;;
33862;SDS011;20158;51.436;-2.742;2022-10-16T04:54:57;10.27;;;2.33;;
33862;SDS011;20158;51.436;-2.742;2022-10-16T04:57:26;4.78;;;1.98;;
33862;SDS011;20158;51.436;-2.742;2022-10-16T04:59:52;6.63;;;1.73;;
33862;SDS011;20158;51.436;-2.742;2022-10-16T05:02:18;6.30;;;1.85;;
33862;SDS011;20158;51.436;-2.742;2022-10-16T05:04:44;5.20;;;1.52;;
33862;SDS011;20158;51.436;-2.742;2022-10-16T05:07:10;8.07;;;2.55;;
33862;SDS011;20158;51.436;-2.742;2022-10-16T05:09:39;8.38;;;2.55;;
33862;SDS011;20158;51.436;-2.742;2022-10-16T05:12:04;7.10;;;2.10;;
33862;SDS011;20158;51.436;-2.742;2022-10-16T05:14:30;5.85;;;1.88;;
33862;SDS011;20158;51.436;-2.742;2022-10-16T05:16:59;5.00;;;1.75;;
33862;SDS011;20158;51.436;-2.742;2022-10-16T05:19:25;10.57;;;2.25;;
33862;SDS011;20158;51.436;-2.742;2022-10-16T05:21:51;9.15;;;1.40;;
33862;SDS011;20158;51.436;-2.742;2022-10-16T05:24:17;7.28;;;1.70;;
33862;SDS011;20158;51.436;-2.742;2022-10-16T05:26:44;8.25;;;2.10;;
33862;SDS011;20158;51.436;-2.742;2022-10-16T05:29:09;6.05;;;1.95;;
33862;SDS011;20158;51.436;-2.742;2022-10-16T05:31:35;8.55;;;2.05;;
33862;SDS011;20158;51.436;-2.742;2022-10-16T05:34:01;7.03;;;2.58;;
33862;SDS011;20158;51.436;-2.742;2022-10-16T05:36:27;7.22;;;1.90;;
33862;SDS011;20158;51.436;-2.742;2022-10-16T05:38:53;5.07;;;1.30;;
33862;SDS011;20158;51.436;-2.742;2022-10-16T05:41:19;3.70;;;1.35;;
33862;SDS011;20158;51.436;-2.742;2022-10-16T05:43:47;7.97;;;1.70;;
33862;SDS011;20158;51.436;-2.742;2022-10-16T05:46:13;4.75;;;1.42;;
33862;SDS011;20158;51.436;-2.742;2022-10-16T05:48:39;4.95;;;1.38;;
33862;SDS011;20158;51.436;-2.742;2022-10-16T05:51:06;5.13;;;1.40;;
33862;SDS011;20158;51.436;-2.742;2022-10-16T05:53:35;5.15;;;1.10;;
33862;SDS011;20158;51.436;-2.742;2022-10-16T05:56:04;7.15;;;1.70;;
33862;SDS011;20158;51.436;-2.742;2022-10-16T05:58:36;9.15;;;2.45;;
33862;SDS011;20158;51.436;-2.742;2022-10-16T06:01:04;4.95;;;1.42;;
33862;SDS011;20158;51.436;-2.742;2022-10-16T06:03:33;7.53;;;1.90;;
33862;SDS011;20158;51.436;-2.742;2022-10-16T06:05:59;6.68;;;1.50;;
33862;SDS011;20158;51.436;-2.742;2022-10-16T06:08:33;8.43;;;1.90;;
33862;SDS011;20158;51.436;-2.742;2022-10-16T06:11:06;7.60;;;1.58;;
33862;SDS011;20158;51.436;-2.742;2022-10-16T06:13:33;7.78;;;2.35;;
33862;SDS011;20158;51.436;-2.742;2022-10-16T06:16:00;7.30;;;1.52;;
33862;SDS011;20158;51.436;-2.742;2022-10-16T06:18:27;6.30;;;1.35;;
33862;SDS011;20158;51.436;-2.742;2022-10-16T06:20:54;4.60;;;1.25;;
33862;SDS011;20158;51.436;-2.742;2022-10-16T06:23:22;7.07;;;1.58;;
33862;SDS011;20158;51.436;-2.742;2022-10-16T06:25:48;7.45;;;1.50;;
33862;SDS011;20158;51.436;-2.742;2022-10-16T06:28:14;4.47;;;2.45;;
33862;SDS011;20158;51.436;-2.742;2022-10-16T06:30:40;8.95;;;2.15;;
33862;SDS011;20158;51.436;-2.742;2022-10-16T06:33:09;4.85;;;2.00;;
33862;SDS011;20158;51.436;-2.742;2022-10-16T06:35:36;4.00;;;1.38;;
33862;SDS011;20158;51.436;-2.742;2022-10-16T06:38:02;7.53;;;1.75;;
33862;SDS011;20158;51.436;-2.742;2022-10-16T06:40:28;3.85;;;1.50;;
33862;SDS011;20158;51.436;-2.742;2022-10-16T06:42:57;3.75;;;1.33;;
33862;SDS011;20158;51.436;-2.742;2022-10-16T06:45:23;6.47;;;1.40;;
33862;SDS011;20158;51.436;-2.742;2022-10-16T06:47:49;7.25;;;1.38;;
33862;SDS011;20158;51.436;-2.742;2022-10-16T06:50:18;7.75;;;2.75;;
33862;SDS011;20158;51.436;-2.742;2022-10-16T06:52:44;7.82;;;2.40;;
33862;SDS011;20158;51.436;-2.742;2022-10-16T06:55:10;11.02;;;2.40;;
33862;SDS011;20158;51.436;-2.742;2022-10-16T06:57:36;8.52;;;1.75;;
33862;SDS011;20158;51.436;-2.742;2022-10-16T07:00:02;11.38;;;2.42;;
33862;SDS011;20158;51.436;-2.742;2022-10-16T07:02:28;7.40;;;1.73;;
33862;SDS011;20158;51.436;-2.742;2022-10-16T07:04:54;3.38;;;1.40;;
33862;SDS011;20158;51.436;-2.742;2022-10-16T07:07:22;5.50;;;1.42;;
33862;SDS011;20158;51.436;-2.742;2022-10-16T07:09:50;7.15;;;2.28;;
33862;SDS011;20158;51.436;-2.742;2022-10-16T07:12:16;6.22;;;2.20;;
33862;SDS011;20158;51.436;-2.742;2022-10-16T07:14:41;4.38;;;1.27;;
33862;SDS011;20158;51.436;-2.742;2022-10-16T07:17:07;6.43;;;1.85;;
33862;SDS011;20158;51.436;-2.742;2022-10-16T07:19:33;5.85;;;1.83;;
33862;SDS011;20158;51.436;-2.742;2022-10-16T07:22:00;6.20;;;1.60;;
33862;SDS011;20158;51.436;-2.742;2022-10-16T07:24:26;8.18;;;1.92;;
33862;SDS011;20158;51.436;-2.742;2022-10-16T07:26:52;6.97;;;2.55;;
33862;SDS011;20158;51.436;-2.742;2022-10-16T07:29:19;6.07;;;1.63;;
33862;SDS011;20158;51.436;-2.742;2022-10-16T07:31:47;6.18;;;1.65;;
33862;SDS011;20158;51.436;-2.742;2022-10-16T07:34:15;7.82;;;1.65;;
33862;SDS011;20158;51.436;-2.742;2022-10-16T07:36:42;6.93;;;1.60;;
33862;SDS011;20158;51.436;-2.742;2022-10-16T07:39:08;6.72;;;2.05;;
33862;SDS011;20158;51.436;-2.742;2022-10-16T07:41:34;8.18;;;1.50;;
33862;SDS011;20158;51.436;-2.742;2022-10-16T07:44:02;7.20;;;1.67;;
33862;SDS011;20158;51.436;-2.742;2022-10-16T07:46:28;6.60;;;1.63;;
33862;SDS011;20158;51.436;-2.742;2022-10-16T07:48:55;4.40;;;1.50;;
33862;SDS011;20158;51.436;-2.742;2022-10-16T07:51:22;7.50;;;1.80;;
33862;SDS011;20158;51.436;-2.742;2022-10-16T07:53:50;7.25;;;1.33;;
33862;SDS011;20158;51.436;-2.742;2022-10-16T07:56:17;5.28;;;1.70;;
33862;SDS011;20158;51.436;-2.742;2022-10-16T07:58:44;7.28;;;2.60;;
33862;SDS011;20158;51.436;-2.742;2022-10-16T08:01:11;6.10;;;1.60;;
33862;SDS011;20158;51.436;-2.742;2022-10-16T08:03:41;5.28;;;1.55;;
33862;SDS011;20158;51.436;-2.742;2022-10-16T08:06:07;8.05;;;4.03;;
33862;SDS011;20158;51.436;-2.742;2022-10-16T08:08:34;9.85;;;2.00;;
33862;SDS011;20158;51.436;-2.742;2022-10-16T08:11:00;6.25;;;2.00;;
33862;SDS011;20158;51.436;-2.742;2022-10-16T08:13:29;7.45;;;1.60;;
33862;SDS011;20158;51.436;-2.742;2022-10-16T08:15:56;8.00;;;1.77;;
33862;SDS011;20158;51.436;-2.742;2022-10-16T08:18:22;7.88;;;1.92;;
33862;SDS011;20158;51.436;-2.742;2022-10-16T08:20:54;6.55;;;2.35;;
33862;SDS011;20158;51.436;-2.742;2022-10-16T08:23:22;20.60;;;11.68;;
33862;SDS011;20158;51.436;-2.742;2022-10-16T08:25:49;15.27;;;7.78;;
33862;SDS011;20158;51.436;-2.742;2022-10-16T08:28:16;14.00;;;7.88;;
33862;SDS011;20158;51.436;-2.742;2022-10-16T08:30:42;13.57;;;6.05;;
33862;SDS011;20158;51.436;-2.742;2022-10-16T08:33:08;12.15;;;5.30;;
33862;SDS011;20158;51.436;-2.742;2022-10-16T08:35:35;8.95;;;4.35;;
33862;SDS011;20158;51.436;-2.742;2022-10-16T08:38:03;14.40;;;4.75;;
33862;SDS011;20158;51.436;-2.742;2022-10-16T08:40:30;10.73;;;4.65;;
33862;SDS011;20158;51.436;-2.742;2022-10-16T08:46:17;7.80;;;4.15;;
33862;SDS011;20158;51.436;-2.742;2022-10-16T08:48:49;8.63;;;3.70;;
33862;SDS011;20158;51.436;-2.742;2022-10-16T08:51:22;8.00;;;3.00;;
33862;SDS011;20158;51.436;-2.742;2022-10-16T08:53:53;10.85;;;3.08;;
33862;SDS011;20158;51.436;-2.742;2022-10-16T08:56:25;10.23;;;3.38;;
33862;SDS011;20158;51.436;-2.742;2022-10-16T08:58:53;6.70;;;2.35;;
33862;SDS011;20158;51.436;-2.742;2022-10-16T09:01:21;10.18;;;2.78;;
33862;SDS011;20158;51.436;-2.742;2022-10-16T09:06:40;8.32;;;2.50;;
33862;SDS011;20158;51.436;-2.742;2022-10-16T09:11:58;10.77;;;2.58;;
33862;SDS011;20158;51.436;-2.742;2022-10-16T09:14:41;6.72;;;2.65;;
33862;SDS011;20158;51.436;-2.742;2022-10-16T09:20:16;9.00;;;2.42;;
33862;SDS011;20158;51.436;-2.742;2022-10-16T09:25:31;9.73;;;2.15;;
33862;SDS011;20158;51.436;-2.742;2022-10-16T09:27:58;8.02;;;1.98;;
33862;SDS011;20158;51.436;-2.742;2022-10-16T09:30:26;7.35;;;1.60;;
33862;SDS011;20158;51.436;-2.742;2022-10-16T09:32:54;6.13;;;1.92;;
33862;SDS011;20158;51.436;-2.742;2022-10-16T09:35:27;15.38;;;3.67;;
33862;SDS011;20158;51.436;-2.742;2022-10-16T09:38:04;8.38;;;1.85;;
33862;SDS011;20158;51.436;-2.742;2022-10-16T09:46:00;8.90;;;1.90;;
33862;SDS011;20158;51.436;-2.742;2022-10-16T09:48:43;10.10;;;2.08;;
33862;SDS011;20158;51.436;-2.742;2022-10-16T09:51:18;9.63;;;2.03;;
33862;SDS011;20158;51.436;-2.742;2022-10-16T09:53:47;9.90;;;2.28;;
33862;SDS011;20158;51.436;-2.742;2022-10-16T09:56:29;11.60;;;2.95;;
33862;SDS011;20158;51.436;-2.742;2022-10-16T09:59:23;11.43;;;2.72;;
33862;SDS011;20158;51.436;-2.742;2022-10-16T10:01:56;7.28;;;1.88;;
33862;SDS011;20158;51.436;-2.742;2022-10-16T10:04:37;8.07;;;1.85;;
33862;SDS011;20158;51.436;-2.742;2022-10-16T10:07:16;8.75;;;1.92;;
33862;SDS011;20158;51.436;-2.742;2022-10-16T10:09:46;12.10;;;2.90;;
33862;SDS011;20158;51.436;-2.742;2022-10-16T10:12:21;11.48;;;3.65;;
33862;SDS011;20158;51.436;-2.742;2022-10-16T10:14:50;11.10;;;3.03;;
33862;SDS011;20158;51.436;-2.742;2022-10-16T10:17:24;7.75;;;2.67;;
33862;SDS011;20158;51.436;-2.742;2022-10-16T10:36:16;6.45;;;1.90;;
33862;SDS011;20158;51.436;-2.742;2022-10-16T10:38:58;5.80;;;1.58;;
33862;SDS011;20158;51.436;-2.742;2022-10-16T10:52:53;7.55;;;2.45;;
33862;SDS011;20158;51.436;-2.742;2022-10-16T10:55:31;9.50;;;1.88;;
33862;SDS011;20158;51.436;-2.742;2022-10-16T11:01:01;6.75;;;1.67;;
33862;SDS011;20158;51.436;-2.742;2022-10-16T11:06:36;6.00;;;1.63;;
33862;SDS011;20158;51.436;-2.742;2022-10-16T11:09:11;7.82;;;2.25;;
33862;SDS011;20158;51.436;-2.742;2022-10-16T11:11:43;5.32;;;1.27;;
33862;SDS011;20158;51.436;-2.742;2022-10-16T11:22:24;5.68;;;2.03;;
33862;SDS011;20158;51.436;-2.742;2022-10-16T11:24:59;5.55;;;1.63;;
33862;SDS011;20158;51.436;-2.742;2022-10-16T11:27:38;4.63;;;1.23;;
33862;SDS011;20158;51.436;-2.742;2022-10-16T11:32:50;4.00;;;0.77;;
33862;SDS011;20158;51.436;-2.742;2022-10-16T11:35:23;6.60;;;1.38;;
33862;SDS011;20158;51.436;-2.742;2022-10-16T11:38:12;7.28;;;2.08;;
33862;SDS011;20158;51.436;-2.742;2022-10-16T11:41:03;7.25;;;1.40;;
33862;SDS011;20158;51.436;-2.742;2022-10-16T11:44:15;3.17;;;0.98;;
33862;SDS011;20158;51.436;-2.742;2022-10-16T11:49:37;5.10;;;1.20;;
33862;SDS011;20158;51.436;-2.742;2022-10-16T11:52:07;8.30;;;1.55;;
33862;SDS011;20158;51.436;-2.742;2022-10-16T11:54:43;6.90;;;1.42;;
33862;SDS011;20158;51.436;-2.742;2022-10-16T11:57:24;3.75;;;1.23;;
33862;SDS011;20158;51.436;-2.742;2022-10-16T12:00:02;2.72;;;0.90;;
33862;SDS011;20158;51.436;-2.742;2022-10-16T12:08:36;6.97;;;1.55;;
33862;SDS011;20158;51.436;-2.742;2022-10-16T12:11:06;6.75;;;1.23;;
33862;SDS011;20158;51.436;-2.742;2022-10-16T12:13:37;5.72;;;1.33;;
33862;SDS011;20158;51.436;-2.742;2022-10-16T12:18:37;5.50;;;1.67;;
33862;SDS011;20158;51.436;-2.742;2022-10-16T12:21:08;5.85;;;1.35;;
33862;SDS011;20158;51.436;-2.742;2022-10-16T12:23:49;7.78;;;2.88;;
33862;SDS011;20158;51.436;-2.742;2022-10-16T12:26:24;8.38;;;2.28;;
33862;SDS011;20158;51.436;-2.742;2022-10-16T12:28:52;5.72;;;1.60;;
33862;SDS011;20158;51.436;-2.742;2022-10-16T12:31:18;7.25;;;1.60;;
33862;SDS011;20158;51.436;-2.742;2022-10-16T12:34:01;5.60;;;1.48;;
33862;SDS011;20158;51.436;-2.742;2022-10-16T12:36:34;6.60;;;1.75;;
33862;SDS011;20158;51.436;-2.742;2022-10-16T12:39:01;5.68;;;2.03;;
33862;SDS011;20158;51.436;-2.742;2022-10-16T12:41:31;5.47;;;1.25;;
33862;SDS011;20158;51.436;-2.742;2022-10-16T12:44:00;6.13;;;1.77;;
33862;SDS011;20158;51.436;-2.742;2022-10-16T12:49:56;8.40;;;2.10;;
33862;SDS011;20158;51.436;-2.742;2022-10-16T12:51:53;7.57;;;1.92;;
33862;SDS011;20158;51.436;-2.742;2022-10-16T12:54:22;6.65;;;2.15;;
33862;SDS011;20158;51.436;-2.742;2022-10-16T12:57:12;5.85;;;1.75;;
33862;SDS011;20158;51.436;-2.742;2022-10-16T13:19:33;7.72;;;2.38;;
33862;SDS011;20158;51.436;-2.742;2022-10-16T13:27:01;6.72;;;2.33;;
33862;SDS011;20158;51.436;-2.742;2022-10-16T13:29:39;5.38;;;1.70;;
33862;SDS011;20158;51.436;-2.742;2022-10-16T13:32:07;7.28;;;2.08;;
33862;SDS011;20158;51.436;-2.742;2022-10-16T13:34:47;7.63;;;1.95;;
33862;SDS011;20158;51.436;-2.742;2022-10-16T13:37:18;7.18;;;1.60;;
33862;SDS011;20158;51.436;-2.742;2022-10-16T13:39:45;7.18;;;2.42;;
33862;SDS011;20158;51.436;-2.742;2022-10-16T13:42:13;6.43;;;1.40;;
33862;SDS011;20158;51.436;-2.742;2022-10-16T13:44:47;5.70;;;1.60;;
33862;SDS011;20158;51.436;-2.742;2022-10-16T13:47:20;5.22;;;2.08;;
33862;SDS011;20158;51.436;-2.742;2022-10-16T13:50:01;8.52;;;2.30;;
33862;SDS011;20158;51.436;-2.742;2022-10-16T13:52:29;8.38;;;1.88;;
33862;SDS011;20158;51.436;-2.742;2022-10-16T13:54:55;3.88;;;1.73;;
33862;SDS011;20158;51.436;-2.742;2022-10-16T13:57:22;5.78;;;1.80;;
33862;SDS011;20158;51.436;-2.742;2022-10-16T13:59:49;4.70;;;1.80;;
33862;SDS011;20158;51.436;-2.742;2022-10-16T14:02:18;6.97;;;2.22;;
33862;SDS011;20158;51.436;-2.742;2022-10-16T14:04:45;6.18;;;1.70;;
33862;SDS011;20158;51.436;-2.742;2022-10-16T14:07:13;5.60;;;1.38;;
33862;SDS011;20158;51.436;-2.742;2022-10-16T14:09:47;3.97;;;1.40;;
33862;SDS011;20158;51.436;-2.742;2022-10-16T14:12:15;9.13;;;2.20;;
33862;SDS011;20158;51.436;-2.742;2022-10-16T14:14:42;5.70;;;1.45;;
33862;SDS011;20158;51.436;-2.742;2022-10-16T14:17:15;5.53;;;2.33;;
33862;SDS011;20158;51.436;-2.742;2022-10-16T14:19:47;10.50;;;2.83;;
33862;SDS011;20158;51.436;-2.742;2022-10-16T14:22:21;7.60;;;2.63;;
33862;SDS011;20158;51.436;-2.742;2022-10-16T14:24:53;5.18;;;2.17;;
33862;SDS011;20158;51.436;-2.742;2022-10-16T14:27:32;7.88;;;2.30;;
33862;SDS011;20158;51.436;-2.742;2022-10-16T14:30:20;6.40;;;2.13;;
33862;SDS011;20158;51.436;-2.742;2022-10-16T14:33:00;10.30;;;2.03;;
33862;SDS011;20158;51.436;-2.742;2022-10-16T14:37:58;5.65;;;1.80;;
33862;SDS011;20158;51.436;-2.742;2022-10-16T14:40:27;6.80;;;2.80;;
33862;SDS011;20158;51.436;-2.742;2022-10-16T14:42:57;8.13;;;2.58;;
33862;SDS011;20158;51.436;-2.742;2022-10-16T14:45:26;5.65;;;1.95;;
33862;SDS011;20158;51.436;-2.742;2022-10-16T14:48:02;5.80;;;2.30;;
33862;SDS011;20158;51.436;-2.742;2022-10-16T14:50:31;6.68;;;1.92;;
33862;SDS011;20158;51.436;-2.742;2022-10-16T14:52:58;6.90;;;2.00;;
33862;SDS011;20158;51.436;-2.742;2022-10-16T14:55:24;5.70;;;2.00;;
33862;SDS011;20158;51.436;-2.742;2022-10-16T14:57:50;5.18;;;2.28;;
33862;SDS011;20158;51.436;-2.742;2022-10-16T15:00:18;8.38;;;2.38;;
33862;SDS011;20158;51.436;-2.742;2022-10-16T15:02:47;6.95;;;1.73;;
33862;SDS011;20158;51.436;-2.742;2022-10-16T15:05:18;8.45;;;2.42;;
33862;SDS011;20158;51.436;-2.742;2022-10-16T15:10:15;5.70;;;2.15;;
33862;SDS011;20158;51.436;-2.742;2022-10-16T15:12:42;5.70;;;1.98;;
33862;SDS011;20158;51.436;-2.742;2022-10-16T15:17:51;7.55;;;2.58;;
33862;SDS011;20158;51.436;-2.742;2022-10-16T15:20:19;6.22;;;2.20;;
33862;SDS011;20158;51.436;-2.742;2022-10-16T15:22:45;25.50;;;2.83;;
33862;SDS011;20158;51.436;-2.742;2022-10-16T15:27:59;6.20;;;1.45;;
33862;SDS011;20158;51.436;-2.742;2022-10-16T15:30:27;5.68;;;1.77;;
33862;SDS011;20158;51.436;-2.742;2022-10-16T15:32:53;8.00;;;1.90;;
33862;SDS011;20158;51.436;-2.742;2022-10-16T15:35:19;5.22;;;2.38;;
33862;SDS011;20158;51.436;-2.742;2022-10-16T15:37:46;7.50;;;1.88;;
33862;SDS011;20158;51.436;-2.742;2022-10-16T15:40:13;6.93;;;2.03;;
33862;SDS011;20158;51.436;-2.742;2022-10-16T15:42:40;4.70;;;1.90;;
33862;SDS011;20158;51.436;-2.742;2022-10-16T15:45:06;22.38;;;3.53;;
33862;SDS011;20158;51.436;-2.742;2022-10-16T15:47:33;7.07;;;1.60;;
33862;SDS011;20158;51.436;-2.742;2022-10-16T15:49:59;6.47;;;2.05;;
33862;SDS011;20158;51.436;-2.742;2022-10-16T15:52:25;8.15;;;2.10;;
33862;SDS011;20158;51.436;-2.742;2022-10-16T15:54:51;6.28;;;2.03;;
33862;SDS011;20158;51.436;-2.742;2022-10-16T15:57:18;6.25;;;2.22;;
33862;SDS011;20158;51.436;-2.742;2022-10-16T15:59:45;4.68;;;1.70;;
33862;SDS011;20158;51.436;-2.742;2022-10-16T16:02:11;6.10;;;2.65;;
33862;SDS011;20158;51.436;-2.742;2022-10-16T16:04:36;8.60;;;1.83;;
33862;SDS011;20158;51.436;-2.742;2022-10-16T16:07:03;7.38;;;2.13;;
33862;SDS011;20158;51.436;-2.742;2022-10-16T16:09:32;4.72;;;2.03;;
33862;SDS011;20158;51.436;-2.742;2022-10-16T16:11:59;6.40;;;1.80;;
33862;SDS011;20158;51.436;-2.742;2022-10-16T16:14:27;7.25;;;2.28;;
33862;SDS011;20158;51.436;-2.742;2022-10-16T16:16:54;5.80;;;1.90;;
33862;SDS011;20158;51.436;-2.742;2022-10-16T16:19:21;6.15;;;2.13;;
33862;SDS011;20158;51.436;-2.742;2022-10-16T16:21:47;7.28;;;2.85;;
33862;SDS011;20158;51.436;-2.742;2022-10-16T16:24:13;9.27;;;2.72;;
33862;SDS011;20158;51.436;-2.742;2022-10-16T16:26:40;4.10;;;1.40;;
33862;SDS011;20158;51.436;-2.742;2022-10-16T16:29:10;7.68;;;2.95;;
33862;SDS011;20158;51.436;-2.742;2022-10-16T16:31:39;6.75;;;2.47;;
33862;SDS011;20158;51.436;-2.742;2022-10-16T16:34:05;8.90;;;2.50;;
33862;SDS011;20158;51.436;-2.742;2022-10-16T16:36:32;7.05;;;1.83;;
33862;SDS011;20158;51.436;-2.742;2022-10-16T16:38:58;7.90;;;2.30;;
33862;SDS011;20158;51.436;-2.742;2022-10-16T16:41:26;9.30;;;2.67;;
33862;SDS011;20158;51.436;-2.742;2022-10-16T16:43:55;7.47;;;1.50;;
33862;SDS011;20158;51.436;-2.742;2022-10-16T16:46:31;9.13;;;2.25;;
33862;SDS011;20158;51.436;-2.742;2022-10-16T16:48:58;7.70;;;1.77;;
33862;SDS011;20158;51.436;-2.742;2022-10-16T16:51:25;6.50;;;2.05;;
33862;SDS011;20158;51.436;-2.742;2022-10-16T16:53:52;9.73;;;2.55;;
33862;SDS011;20158;51.436;-2.742;2022-10-16T16:56:19;6.60;;;2.05;;
33862;SDS011;20158;51.436;-2.742;2022-10-16T16:58:47;4.85;;;1.58;;
33862;SDS011;20158;51.436;-2.742;2022-10-16T17:01:14;9.90;;;2.88;;